createdAt,value
2022-11-19T00:02:25.239Z,42.53
2022-11-19T00:04:53.858Z,45.90
2022-11-19T00:07:22.513Z,44.50
2022-11-19T00:09:51.313Z,38.97
2022-11-19T00:12:38.102Z,40.40
2022-11-19T00:15:07.817Z,42.53
2022-11-19T00:17:38.055Z,40.53
2022-11-19T00:20:07.272Z,47.60
2022-11-19T00:22:35.873Z,56.93
2022-11-19T00:25:05.064Z,85.23
2022-11-19T00:27:35.221Z,43.53
2022-11-19T00:30:10.965Z,67.43
2022-11-19T00:32:50.538Z,50.13
2022-11-19T00:35:19.419Z,41.67
2022-11-19T00:37:48.078Z,55.97
2022-11-19T00:40:20.354Z,53.10
2022-11-19T00:43:02.664Z,47.40
2022-11-19T00:45:34.367Z,53.10
2022-11-19T00:48:04.615Z,51.67
2022-11-19T00:50:35.144Z,54.33
2022-11-19T00:53:04.176Z,50.73
2022-11-19T00:55:35.475Z,50.20
2022-11-19T00:58:05.611Z,55.70
2022-11-19T01:00:35.806Z,65.60
2022-11-19T01:03:10.937Z,59.13
2022-11-19T01:05:46.171Z,57.40
2022-11-19T01:08:19.292Z,57.77
2022-11-19T01:10:48.159Z,58.23
2022-11-19T01:13:38.741Z,62.97
2022-11-19T01:16:11.298Z,63.47
2022-11-19T01:18:47.387Z,51.43
2022-11-19T01:21:19.551Z,50.10
2022-11-19T01:23:53.120Z,52.83
2022-11-19T01:26:25.456Z,51.17
2022-11-19T01:28:56.714Z,53.10
2022-11-19T01:31:27.887Z,60.70
2022-11-19T01:34:02.065Z,62.73
2022-11-19T01:36:34.890Z,63.00
2022-11-19T01:39:03.588Z,61.80
2022-11-19T01:41:36.557Z,62.20
2022-11-19T01:44:12.323Z,43.60
2022-11-19T01:46:42.200Z,40.00
2022-11-19T01:49:22.226Z,42.50
2022-11-19T01:52:00.301Z,43.67
2022-11-19T01:54:41.529Z,47.90
2022-11-19T01:57:19.984Z,47.17
2022-11-19T01:59:57.853Z,44.90
2022-11-19T02:02:33.873Z,45.37
2022-11-19T02:05:11.515Z,45.83
2022-11-19T02:07:49.382Z,47.00
2022-11-19T02:10:29.245Z,46.00
2022-11-19T02:13:17.294Z,46.90
2022-11-19T02:16:00.469Z,47.03
2022-11-19T02:18:50.469Z,44.97
2022-11-19T02:21:37.994Z,45.63
2022-11-19T02:24:53.111Z,52.77
2022-11-19T02:28:04.349Z,46.07
2022-11-19T02:30:46.331Z,46.77
2022-11-19T02:33:24.479Z,46.20
2022-11-19T02:36:03.148Z,48.00
2022-11-19T02:38:43.987Z,49.50
2022-11-19T02:41:40.105Z,49.80
2022-11-19T02:44:40.590Z,43.77
2022-11-19T02:47:17.484Z,45.27
2022-11-19T02:49:53.176Z,47.90
2022-11-19T02:52:28.258Z,48.63
2022-11-19T02:55:02.930Z,50.03
2022-11-19T02:57:34.983Z,46.50
2022-11-19T03:00:33.776Z,40.60
2022-11-19T03:03:27.541Z,47.87
2022-11-19T03:06:03.327Z,42.93
2022-11-19T03:08:32.056Z,38.97
2022-11-19T03:11:17.723Z,41.97
2022-11-19T03:14:14.921Z,43.73
2022-11-19T03:16:50.993Z,43.37
2022-11-19T03:19:35.111Z,40.80
2022-11-19T03:22:11.903Z,42.17
2022-11-19T03:24:49.286Z,40.67
2022-11-19T03:27:26.842Z,40.13
2022-11-19T03:30:00.419Z,48.17
2022-11-19T03:32:37.824Z,40.07
2022-11-19T03:35:19.542Z,46.77
2022-11-19T03:37:56.959Z,40.67
2022-11-19T03:40:31.797Z,44.17
2022-11-19T03:43:08.968Z,46.93
2022-11-19T03:45:48.236Z,46.50
2022-11-19T03:48:26.159Z,56.87
2022-11-19T03:51:04.877Z,52.67
2022-11-19T03:53:35.720Z,47.80
2022-11-19T03:56:10.268Z,51.13
2022-11-19T03:58:41.081Z,48.00
2022-11-19T04:01:11.891Z,47.80
2022-11-19T04:03:40.860Z,41.50
2022-11-19T04:06:14.176Z,44.43
2022-11-19T04:08:45.693Z,46.47
2022-11-19T04:13:50.104Z,39.53
2022-11-19T04:16:20.738Z,34.83
2022-11-19T04:18:51.188Z,31.60
2022-11-19T04:21:23.950Z,40.93
2022-11-19T04:23:54.022Z,34.47
2022-11-19T04:26:22.641Z,34.43
2022-11-19T04:28:52.160Z,35.87
2022-11-19T04:31:22.799Z,32.90
2022-11-19T04:33:56.532Z,33.20
2022-11-19T04:36:27.639Z,29.77
2022-11-19T04:38:58.200Z,34.03
2022-11-19T04:41:30.298Z,29.87
2022-11-19T04:43:59.822Z,29.23
2022-11-19T04:46:30.085Z,27.83
2022-11-19T04:49:00.702Z,31.13
2022-11-19T04:51:36.638Z,25.93
2022-11-19T04:54:10.204Z,26.13
2022-11-19T04:56:41.658Z,27.77
2022-11-19T04:59:13.348Z,26.50
2022-11-19T05:01:43.808Z,25.63
2022-11-19T05:04:15.996Z,26.60
2022-11-19T05:06:48.429Z,30.27
2022-11-19T05:09:19.568Z,28.93
2022-11-19T05:11:50.551Z,25.20
2022-11-19T05:14:19.207Z,27.13
2022-11-19T05:16:50.607Z,29.03
2022-11-19T05:19:20.528Z,27.93
2022-11-19T05:21:53.009Z,26.20
2022-11-19T05:24:21.632Z,27.37
2022-11-19T05:26:50.251Z,26.23
2022-11-19T05:29:20.018Z,24.60
2022-11-19T05:31:50.622Z,23.77
2022-11-19T05:34:20.137Z,27.30
2022-11-19T05:36:52.509Z,29.70
2022-11-19T05:39:27.688Z,29.37
2022-11-19T05:41:59.060Z,29.73
2022-11-19T05:44:30.046Z,98.30
2022-11-19T05:47:00.276Z,93.80
2022-11-19T05:49:30.999Z,80.77
2022-11-19T05:52:01.930Z,60.90
2022-11-19T05:54:32.242Z,67.50
2022-11-19T05:57:09.510Z,59.50
2022-11-19T05:59:43.825Z,67.10
2022-11-19T06:02:17.277Z,59.13
2022-11-19T06:04:47.552Z,65.60
2022-11-19T06:07:19.419Z,57.83
2022-11-19T06:09:51.183Z,51.97
2022-11-19T06:12:23.184Z,53.57
2022-11-19T06:14:54.097Z,53.70
2022-11-19T06:17:25.903Z,48.53
2022-11-19T06:19:55.974Z,57.60
2022-11-19T06:22:29.645Z,63.53
2022-11-19T06:24:58.236Z,59.47
2022-11-19T06:27:27.431Z,60.37
2022-11-19T06:29:58.898Z,60.87
2022-11-19T06:32:31.111Z,53.13
2022-11-19T06:35:02.586Z,52.60
2022-11-19T06:37:37.590Z,62.60
2022-11-19T06:40:10.136Z,62.70
2022-11-19T06:42:39.755Z,195.43
2022-11-19T06:45:12.381Z,64.77
2022-11-19T06:47:43.019Z,68.00
2022-11-19T06:50:14.580Z,75.07
2022-11-19T06:52:49.401Z,66.20
2022-11-19T06:55:18.800Z,70.50
2022-11-19T06:57:49.252Z,71.10
2022-11-19T07:00:19.828Z,76.03
2022-11-19T07:02:48.879Z,83.27
2022-11-19T07:05:20.389Z,89.60
2022-11-19T07:08:02.651Z,81.63
2022-11-19T07:10:39.793Z,79.43
2022-11-19T07:13:15.378Z,70.90
2022-11-19T07:15:50.534Z,73.47
2022-11-19T07:18:24.993Z,80.00
2022-11-19T07:20:55.147Z,89.40
2022-11-19T07:23:36.107Z,92.37
2022-11-19T07:26:08.334Z,78.03
2022-11-19T07:28:41.621Z,85.47
2022-11-19T07:31:38.895Z,83.37
2022-11-19T07:34:13.224Z,72.60
2022-11-19T07:36:42.592Z,88.87
2022-11-19T07:39:13.849Z,117.25
2022-11-19T07:42:00.564Z,118.00
2022-11-19T07:44:29.741Z,37.30
2022-11-19T07:46:58.475Z,162.23
2022-11-19T07:49:27.670Z,158.97
2022-11-19T07:51:58.359Z,124.40
2022-11-19T07:54:31.831Z,123.13
2022-11-19T07:57:01.196Z,121.03
2022-11-19T07:59:31.595Z,130.83
2022-11-19T08:02:01.962Z,123.83
2022-11-19T08:04:33.020Z,113.80
2022-11-19T08:07:04.277Z,104.77
2022-11-19T08:09:38.276Z,141.33
2022-11-19T08:12:10.948Z,134.97
2022-11-19T08:14:43.046Z,119.43
2022-11-19T08:17:30.286Z,32.03
2022-11-19T08:19:58.949Z,130.27
2022-11-19T08:22:31.189Z,133.37
2022-11-19T08:25:10.124Z,152.73
2022-11-19T08:27:44.272Z,142.53
2022-11-19T08:30:14.528Z,132.33
2022-11-19T08:32:43.869Z,28.38
2022-11-19T08:35:12.525Z,114.87
2022-11-19T08:37:41.444Z,127.43
2022-11-19T08:40:12.628Z,118.00
2022-11-19T08:42:58.845Z,94.63
2022-11-19T08:45:28.723Z,68.17
2022-11-19T08:47:58.379Z,70.83
2022-11-19T08:50:27.582Z,83.17
2022-11-19T08:52:58.057Z,73.00
2022-11-19T08:55:29.939Z,79.20
2022-11-19T08:58:02.949Z,119.67
2022-11-19T09:00:32.886Z,116.70
2022-11-19T09:03:01.745Z,140.87
2022-11-19T09:05:30.463Z,100.67
2022-11-19T09:07:59.161Z,80.93
2022-11-19T09:10:29.628Z,63.40
2022-11-19T09:12:58.311Z,58.80
2022-11-19T09:15:27.144Z,67.97
2022-11-19T09:17:55.725Z,117.00
2022-11-19T09:20:24.900Z,110.77
2022-11-19T09:22:53.567Z,66.80
2022-11-19T09:25:22.339Z,69.10
2022-11-19T09:27:52.857Z,77.33
2022-11-19T09:30:21.701Z,77.57
2022-11-19T09:32:50.465Z,71.07
2022-11-19T09:35:19.416Z,78.50
2022-11-19T09:37:48.063Z,78.80
2022-11-19T09:40:20.799Z,63.30
2022-11-19T09:43:05.997Z,65.30
2022-11-19T09:45:47.655Z,80.17
2022-11-19T09:48:29.598Z,64.27
2022-11-19T09:51:02.100Z,67.57
2022-11-19T09:53:36.077Z,58.20
2022-11-19T09:56:04.721Z,51.47
2022-11-19T09:58:39.329Z,132.60
2022-11-19T10:01:08.437Z,162.13
2022-11-19T10:03:40.017Z,188.50
2022-11-19T10:06:26.940Z,169.70
2022-11-19T10:09:20.732Z,69.20
2022-11-19T10:12:00.330Z,56.77
2022-11-19T10:14:46.503Z,76.07
2022-11-19T10:17:23.586Z,63.63
2022-11-19T10:20:08.381Z,93.53
2022-11-19T10:22:40.998Z,117.50
2022-11-19T10:25:19.180Z,129.40
2022-11-19T10:27:52.447Z,151.50
2022-11-19T10:30:24.606Z,156.13
2022-11-19T10:32:58.903Z,140.80
2022-11-19T10:35:31.837Z,156.47
2022-11-19T10:38:03.483Z,147.23
2022-11-19T10:40:42.020Z,137.37
2022-11-19T10:43:23.401Z,146.87
2022-11-19T10:45:53.751Z,143.07
2022-11-19T10:48:25.266Z,144.70
2022-11-19T10:50:56.508Z,139.30
2022-11-19T10:53:29.466Z,125.67
2022-11-19T10:56:01.194Z,128.27
2022-11-19T10:58:33.793Z,125.53
2022-11-19T11:01:06.829Z,143.80
2022-11-19T11:03:47.132Z,136.47
2022-11-19T11:06:15.793Z,130.43
2022-11-19T11:08:52.551Z,133.30
2022-11-19T11:11:26.258Z,125.37
2022-11-19T11:14:26.948Z,138.33
2022-11-19T11:17:25.322Z,133.90
2022-11-19T11:20:04.152Z,146.60
2022-11-19T11:22:34.245Z,81.17
2022-11-19T11:25:22.855Z,126.33
2022-11-19T11:28:06.802Z,108.60
2022-11-19T11:30:36.293Z,86.70
2022-11-19T11:33:32.027Z,103.70
2022-11-19T11:36:05.246Z,130.03
2022-11-19T11:38:41.232Z,97.53
2022-11-19T11:41:56.413Z,78.73
2022-11-19T11:44:04.321Z,100.47
2022-11-19T11:46:39.720Z,86.33
2022-11-19T11:49:22.533Z,67.27
2022-11-19T11:51:59.127Z,136.63
2022-11-19T11:54:27.921Z,67.00
2022-11-19T11:57:16.011Z,133.37
2022-11-19T11:59:45.277Z,91.57
2022-11-19T12:02:22.770Z,86.43
2022-11-19T12:04:54.880Z,60.20
2022-11-19T12:07:43.640Z,75.37
2022-11-19T12:10:25.226Z,92.07
2022-11-19T12:13:13.062Z,62.70
2022-11-19T12:15:53.895Z,45.50
2022-11-19T12:18:31.093Z,58.53
2022-11-19T12:21:11.499Z,62.83
2022-11-19T12:24:09.441Z,54.60
2022-11-19T12:26:46.881Z,66.77
2022-11-19T12:29:26.124Z,97.33
2022-11-19T12:32:10.654Z,64.57
2022-11-19T12:35:15.141Z,58.13
2022-11-19T12:38:05.084Z,97.23
2022-11-19T12:40:43.703Z,80.37
2022-11-19T12:43:24.581Z,67.63
2022-11-19T12:46:01.407Z,131.17
2022-11-19T12:48:55.715Z,163.80
2022-11-19T12:51:35.083Z,178.53
2022-11-19T12:54:30.199Z,144.57
2022-11-19T12:57:18.062Z,150.93
2022-11-19T13:00:06.328Z,178.90
2022-11-19T13:02:41.969Z,116.13
2022-11-19T13:05:18.418Z,110.07
2022-11-19T13:07:53.345Z,110.23
2022-11-19T13:10:27.727Z,130.77
2022-11-19T13:12:58.438Z,132.00
2022-11-19T13:15:33.145Z,150.43
2022-11-19T13:18:05.036Z,169.70
2022-11-19T13:20:55.059Z,144.10
2022-11-19T13:23:28.780Z,111.97
2022-11-19T13:26:03.814Z,88.60
2022-11-19T13:28:38.991Z,86.07
2022-11-19T13:31:14.392Z,90.20
2022-11-19T13:33:50.739Z,128.97
2022-11-19T13:36:25.572Z,90.93
2022-11-19T13:38:58.485Z,125.07
2022-11-19T13:41:32.616Z,79.97
2022-11-19T13:44:18.886Z,82.70
2022-11-19T13:46:51.200Z,70.00
2022-11-19T13:49:24.888Z,100.33
2022-11-19T13:51:57.292Z,163.20
2022-11-19T13:54:28.075Z,211.07
2022-11-19T13:56:59.543Z,191.73
2022-11-19T13:59:33.075Z,179.17
2022-11-19T14:02:15.327Z,150.00
2022-11-19T14:05:03.060Z,149.83
2022-11-19T14:07:44.009Z,194.97
2022-11-19T14:10:24.142Z,181.07
2022-11-19T14:13:09.894Z,209.30
2022-11-19T14:16:10.541Z,191.77
2022-11-19T14:18:59.468Z,242.07
2022-11-19T14:22:05.543Z,246.83
2022-11-19T14:25:16.301Z,221.93
2022-11-19T14:27:46.245Z,133.17
2022-11-19T14:30:45.381Z,44.60
2022-11-19T14:33:58.792Z,49.53
2022-11-19T14:36:58.022Z,84.23
2022-11-19T14:39:33.701Z,61.67
2022-11-19T14:42:15.924Z,46.40
2022-11-19T14:44:45.366Z,50.87
2022-11-19T14:47:34.476Z,72.88
2022-11-19T14:50:19.473Z,64.27
2022-11-19T14:52:53.923Z,36.55
2022-11-19T14:55:24.529Z,173.23
2022-11-19T14:57:59.896Z,112.53
2022-11-19T15:00:32.398Z,46.20
2022-11-19T15:03:04.204Z,45.60
2022-11-19T15:05:36.211Z,48.03
2022-11-19T15:08:41.194Z,58.80
2022-11-19T15:11:12.477Z,72.07
2022-11-19T15:13:41.891Z,84.47
2022-11-19T15:16:13.047Z,109.20
2022-11-19T15:19:08.259Z,120.73
2022-11-19T15:22:10.984Z,126.72
2022-11-19T15:25:12.491Z,145.70
2022-11-19T15:28:00.125Z,98.22
2022-11-19T15:30:39.296Z,205.70
2022-11-19T15:33:36.192Z,96.13
2022-11-19T15:36:28.886Z,91.77
2022-11-19T15:39:03.781Z,101.17
2022-11-19T15:41:38.266Z,128.60
2022-11-19T15:44:10.314Z,124.73
2022-11-19T15:46:48.024Z,103.03
2022-11-19T15:49:22.131Z,99.67
2022-11-19T15:52:17.564Z,109.13
2022-11-19T15:54:46.860Z,99.73
2022-11-19T15:57:24.846Z,115.80
2022-11-19T15:59:58.119Z,113.20
2022-11-19T16:02:34.513Z,108.93
2022-11-19T16:05:03.271Z,100.63
2022-11-19T16:07:33.845Z,83.63
2022-11-19T16:10:02.754Z,99.80
2022-11-19T16:12:48.903Z,100.80
2022-11-19T16:15:37.555Z,96.83
2022-11-19T16:18:13.334Z,95.73
2022-11-19T16:20:43.579Z,108.33
2022-11-19T16:23:17.827Z,110.80
2022-11-19T16:25:47.151Z,114.90
2022-11-19T16:28:17.485Z,118.17
2022-11-19T16:30:48.957Z,113.63
2022-11-19T16:33:21.033Z,106.33
2022-11-19T16:35:53.135Z,94.43
2022-11-19T16:38:29.219Z,84.93
2022-11-19T16:41:30.635Z,90.27
2022-11-19T16:44:00.415Z,95.23
2022-11-19T16:46:31.151Z,103.90
2022-11-19T16:49:01.416Z,95.00
2022-11-19T16:51:40.831Z,99.07
2022-11-19T16:54:12.068Z,88.47
2022-11-19T16:56:44.504Z,103.30
2022-11-19T16:59:21.691Z,106.87
2022-11-19T17:01:55.478Z,101.67
2022-11-19T17:04:26.767Z,104.63
2022-11-19T17:06:56.119Z,113.57
2022-11-19T17:09:37.267Z,96.47
2022-11-19T17:12:24.013Z,105.90
2022-11-19T17:14:55.922Z,96.10
2022-11-19T17:17:36.904Z,108.37
2022-11-19T17:20:41.461Z,114.17
2022-11-19T17:23:17.509Z,113.40
2022-11-19T17:25:54.664Z,100.67
2022-11-19T17:28:35.269Z,97.03
2022-11-19T17:31:07.226Z,102.17
2022-11-19T17:33:36.931Z,101.23
2022-11-19T17:36:12.572Z,101.23
2022-11-19T17:38:41.277Z,95.87
2022-11-19T17:41:16.547Z,96.30
2022-11-19T17:44:03.081Z,88.60
2022-11-19T17:46:31.864Z,100.80
2022-11-19T17:49:00.713Z,116.30
2022-11-19T17:51:29.476Z,113.40
2022-11-19T17:53:58.257Z,120.10
2022-11-19T17:56:29.750Z,131.43
2022-11-19T17:58:59.880Z,114.03
2022-11-19T18:01:28.869Z,114.80
2022-11-19T18:03:57.609Z,73.22
2022-11-19T18:06:26.401Z,163.33
2022-11-19T18:08:55.055Z,162.47
2022-11-19T18:11:26.377Z,150.30
2022-11-19T18:13:59.961Z,147.23
2022-11-19T18:16:34.349Z,137.83
2022-11-19T18:19:03.229Z,127.33
2022-11-19T18:21:31.854Z,135.63
2022-11-19T18:24:00.536Z,125.13
2022-11-19T18:26:29.200Z,123.03
2022-11-19T18:28:59.279Z,120.73
2022-11-19T18:31:29.751Z,124.27
2022-11-19T18:33:58.729Z,129.80
2022-11-19T18:36:27.471Z,133.87
2022-11-19T18:38:56.878Z,136.47
2022-11-19T18:41:25.968Z,130.30
2022-11-19T18:44:12.082Z,129.43
2022-11-19T18:46:42.533Z,134.27
2022-11-19T18:49:11.290Z,133.33
2022-11-19T18:51:39.900Z,129.43
2022-11-19T18:54:08.569Z,128.47
2022-11-19T18:56:37.448Z,128.47
2022-11-19T18:59:06.207Z,134.50
2022-11-19T19:01:35.397Z,135.77
2022-11-19T19:04:05.705Z,132.60
2022-11-19T19:06:34.604Z,135.73
2022-11-19T19:09:03.444Z,129.13
2022-11-19T19:11:49.453Z,129.17
2022-11-19T19:14:18.480Z,122.57
2022-11-19T19:16:47.237Z,129.13
2022-11-19T19:19:19.469Z,138.17
2022-11-19T19:21:48.388Z,138.73
2022-11-19T19:24:17.552Z,130.10
2022-11-19T19:26:46.256Z,130.70
2022-11-19T19:29:14.877Z,125.53
2022-11-19T19:31:43.648Z,121.23
2022-11-19T19:34:12.809Z,131.70
2022-11-19T19:36:43.135Z,124.30
2022-11-19T19:39:11.807Z,128.33
2022-11-19T19:41:40.435Z,126.43
2022-11-19T19:44:10.541Z,126.37
2022-11-19T19:46:39.208Z,121.50
2022-11-19T19:49:08.241Z,124.93
2022-11-19T19:51:36.954Z,132.57
2022-11-19T19:54:07.589Z,122.10
2022-11-19T19:56:36.399Z,130.37
2022-11-19T19:59:05.254Z,124.57
2022-11-19T20:01:36.294Z,119.60
2022-11-19T20:04:06.641Z,133.33
2022-11-19T20:06:36.682Z,123.90
2022-11-19T20:09:21.800Z,117.27
2022-11-19T20:11:50.479Z,119.00
2022-11-19T20:14:19.217Z,137.30
2022-11-19T20:16:47.900Z,126.80
2022-11-19T20:19:16.671Z,131.23
2022-11-19T20:21:47.295Z,131.67
2022-11-19T20:24:18.836Z,114.73
2022-11-19T20:26:47.586Z,99.43
2022-11-19T20:29:17.845Z,96.87
2022-11-19T20:31:48.023Z,81.93
2022-11-19T20:34:18.046Z,74.37
2022-11-19T20:36:47.054Z,68.27
2022-11-19T20:39:17.232Z,74.30
2022-11-19T20:42:03.689Z,75.43
2022-11-19T20:44:32.617Z,81.50
2022-11-19T20:47:04.130Z,75.13
2022-11-19T20:49:36.031Z,81.70
2022-11-19T20:52:05.420Z,84.07
2022-11-19T20:54:37.088Z,92.20
2022-11-19T20:57:07.872Z,86.97
2022-11-19T20:59:36.785Z,85.97
2022-11-19T21:02:06.871Z,84.20
2022-11-19T21:04:37.356Z,85.33
2022-11-19T21:07:06.749Z,84.80
2022-11-19T21:09:37.659Z,80.37
2022-11-19T21:12:06.756Z,73.00
2022-11-19T21:14:35.364Z,60.43
2022-11-19T21:17:04.125Z,56.47
2022-11-19T21:19:32.866Z,57.23
2022-11-19T21:22:01.649Z,62.50
2022-11-19T21:24:30.726Z,62.30
2022-11-19T21:27:01.260Z,52.80
2022-11-19T21:29:30.097Z,58.07
2022-11-19T21:31:58.829Z,55.43
2022-11-19T21:34:27.559Z,58.90
2022-11-19T21:36:58.328Z,53.23
2022-11-19T21:39:27.496Z,55.87
2022-11-19T21:41:57.138Z,55.40
2022-11-19T21:44:27.295Z,62.37
2022-11-19T21:46:56.216Z,68.03
2022-11-19T21:49:24.873Z,73.70
2022-11-19T21:51:55.380Z,71.67
2022-11-19T21:54:24.165Z,73.27
2022-11-19T21:56:53.189Z,73.80
2022-11-19T21:59:22.144Z,77.23
2022-11-19T22:01:54.863Z,78.83
2022-11-19T22:04:23.856Z,100.43
2022-11-19T22:06:53.142Z,99.23
2022-11-19T22:09:22.048Z,94.57
2022-11-19T22:11:51.060Z,97.33
2022-11-19T22:14:19.785Z,98.57
2022-11-19T22:16:48.471Z,93.43
2022-11-19T22:19:19.500Z,92.43
2022-11-19T22:21:48.653Z,53.58
2022-11-19T22:27:03.811Z,53.40
2022-11-19T22:29:32.572Z,57.83
2022-11-19T22:32:01.208Z,201.77
2022-11-19T22:34:31.528Z,78.33
2022-11-19T22:37:00.869Z,77.50
2022-11-19T22:39:29.557Z,73.07
2022-11-19T22:41:58.261Z,72.27
2022-11-19T22:44:29.264Z,69.80
2022-11-19T22:47:00.069Z,66.27
2022-11-19T22:49:29.123Z,69.20
2022-11-19T22:51:59.328Z,66.97
2022-11-19T22:54:31.266Z,67.10
2022-11-19T22:56:59.964Z,64.93
2022-11-19T22:59:29.071Z,59.43
2022-11-19T23:01:57.684Z,57.70
2022-11-19T23:04:26.602Z,58.03
2022-11-19T23:06:55.670Z,63.30
2022-11-19T23:09:25.780Z,61.63
2022-11-19T23:12:11.706Z,56.67
2022-11-19T23:14:40.310Z,57.07
2022-11-19T23:17:08.959Z,52.77
2022-11-19T23:19:39.162Z,62.97
2022-11-19T23:22:07.980Z,68.80
2022-11-19T23:24:38.529Z,63.83
2022-11-19T23:27:07.173Z,57.47
2022-11-19T23:29:35.822Z,59.63
2022-11-19T23:32:04.892Z,60.33
2022-11-19T23:34:33.814Z,58.13
2022-11-19T23:37:02.699Z,62.73
2022-11-19T23:39:31.461Z,61.17
2022-11-19T23:42:01.556Z,59.40
2022-11-19T23:44:30.204Z,57.53
2022-11-19T23:46:58.997Z,60.23
2022-11-19T23:49:27.687Z,59.50
2022-11-19T23:51:56.250Z,62.30
2022-11-19T23:54:25.166Z,57.10
2022-11-19T23:56:53.816Z,63.10
2022-11-19T23:59:25.789Z,63.67
